sensor_id;sensor_type;location;lat;lon;timestamp;pressure;altitude;pressure_sealevel;temperature;humidity
71966;BME280;59836;52.132;5.442;2023-08-07T00:01:02;101269.09;;;13.85;100.00
71966;BME280;59836;52.132;5.442;2023-08-07T00:03:34;101277.00;;;13.86;100.00
71966;BME280;59836;52.132;5.442;2023-08-07T00:06:03;101267.75;;;13.82;100.00
71966;BME280;59836;52.132;5.442;2023-08-07T00:08:33;101281.94;;;13.79;100.00
71966;BME280;59836;52.132;5.442;2023-08-07T00:14:28;101280.56;;;13.82;100.00
71966;BME280;59836;52.132;5.442;2023-08-07T00:16:57;101277.84;;;13.82;100.00
71966;BME280;59836;52.132;5.442;2023-08-07T00:19:30;101277.59;;;13.78;100.00
71966;BME280;59836;52.132;5.442;2023-08-07T00:22:14;101279.25;;;13.74;100.00
71966;BME280;59836;52.132;5.442;2023-08-07T00:24:42;101280.34;;;13.73;100.00
71966;BME280;59836;52.132;5.442;2023-08-07T00:27:11;101283.06;;;13.73;100.00
71966;BME280;59836;52.132;5.442;2023-08-07T00:29:48;101286.91;;;13.72;100.00
71966;BME280;59836;52.132;5.442;2023-08-07T00:32:41;101290.72;;;13.71;100.00
71966;BME280;59836;52.132;5.442;2023-08-07T00:35:08;101290.16;;;13.74;100.00
71966;BME280;59836;52.132;5.442;2023-08-07T00:37:40;101295.59;;;13.74;100.00
71966;BME280;59836;52.132;5.442;2023-08-07T00:40:09;101288.53;;;13.73;100.00
71966;BME280;59836;52.132;5.442;2023-08-07T00:42:35;101281.44;;;13.72;100.00
71966;BME280;59836;52.132;5.442;2023-08-07T00:45:02;101278.72;;;13.72;100.00
71966;BME280;59836;52.132;5.442;2023-08-07T00:47:32;101280.91;;;13.70;100.00
71966;BME280;59836;52.132;5.442;2023-08-07T00:50:01;101281.44;;;13.72;100.00
71966;BME280;59836;52.132;5.442;2023-08-07T00:56:07;101276.00;;;13.72;100.00
71966;BME280;59836;52.132;5.442;2023-08-07T00:58:50;101280.91;;;13.70;100.00
71966;BME280;59836;52.132;5.442;2023-08-07T01:01:17;101276.00;;;13.72;100.00
71966;BME280;59836;52.132;5.442;2023-08-07T01:06:40;101277.38;;;13.69;100.00
71966;BME280;59836;52.132;5.442;2023-08-07T01:09:10;101284.72;;;13.69;100.00
71966;BME280;59836;52.132;5.442;2023-08-07T01:11:44;101276.00;;;13.67;100.00
71966;BME280;59836;52.132;5.442;2023-08-07T01:14:37;101288.53;;;13.68;100.00
71966;BME280;59836;52.132;5.442;2023-08-07T01:17:11;101287.44;;;13.69;100.00
71966;BME280;59836;52.132;5.442;2023-08-07T01:19:41;101287.97;;;13.71;100.00
71966;BME280;59836;52.132;5.442;2023-08-07T01:22:27;101287.44;;;13.69;100.00
71966;BME280;59836;52.132;5.442;2023-08-07T01:24:55;101285.81;;;13.68;100.00
71966;BME280;59836;52.132;5.442;2023-08-07T01:30:59;101295.06;;;13.72;100.00
71966;BME280;59836;52.132;5.442;2023-08-07T01:33:49;101291.53;;;13.71;100.00
71966;BME280;59836;52.132;5.442;2023-08-07T01:36:34;101295.06;;;13.72;100.00
71966;BME280;59836;52.132;5.442;2023-08-07T01:39:04;101288.81;;;13.71;100.00
71966;BME280;59836;52.132;5.442;2023-08-07T01:41:37;101297.78;;;13.72;100.00
71966;BME280;59836;52.132;5.442;2023-08-07T01:44:04;101303.25;;;13.72;100.00
71966;BME280;59836;52.132;5.442;2023-08-07T01:46:37;101296.13;;;13.76;100.00
71966;BME280;59836;52.132;5.442;2023-08-07T01:49:20;101300.50;;;13.77;100.00
71966;BME280;59836;52.132;5.442;2023-08-07T01:52:10;101301.88;;;13.75;100.00
71966;BME280;59836;52.132;5.442;2023-08-07T01:54:37;101292.88;;;13.74;100.00
71966;BME280;59836;52.132;5.442;2023-08-07T01:57:20;101303.53;;;13.76;100.00
71966;BME280;59836;52.132;5.442;2023-08-07T01:59:52;101299.41;;;13.78;100.00
71966;BME280;59836;52.132;5.442;2023-08-07T02:02:18;101303.22;;;13.77;100.00
71966;BME280;59836;52.132;5.442;2023-08-07T02:04:45;101295.88;;;13.78;100.00
71966;BME280;59836;52.132;5.442;2023-08-07T02:07:11;101301.31;;;13.78;100.00
71966;BME280;59836;52.132;5.442;2023-08-07T02:10:09;101300.78;;;13.76;100.00
71966;BME280;59836;52.132;5.442;2023-08-07T02:12:38;101302.69;;;13.75;100.00
71966;BME280;59836;52.132;5.442;2023-08-07T02:15:12;101308.13;;;13.75;100.00
71966;BME280;59836;52.132;5.442;2023-08-07T02:17:41;101307.34;;;13.75;100.00
71966;BME280;59836;52.132;5.442;2023-08-07T02:20:11;101313.88;;;13.73;100.00
71966;BME280;59836;52.132;5.442;2023-08-07T02:26:00;101320.69;;;13.76;100.00
71966;BME280;59836;52.132;5.442;2023-08-07T02:28:30;101309.78;;;13.76;100.00
71966;BME280;59836;52.132;5.442;2023-08-07T02:33:32;101317.41;;;13.74;100.00
71966;BME280;59836;52.132;5.442;2023-08-07T02:41:36;101316.31;;;13.75;100.00
71966;BME280;59836;52.132;5.442;2023-08-07T02:44:29;101315.22;;;13.76;100.00
71966;BME280;59836;52.132;5.442;2023-08-07T02:50:16;101319.59;;;13.77;100.00
71966;BME280;59836;52.132;5.442;2023-08-07T02:52:43;101315.75;;;13.78;100.00
71966;BME280;59836;52.132;5.442;2023-08-07T02:58:22;101317.38;;;13.79;100.00
71966;BME280;59836;52.132;5.442;2023-08-07T03:00:51;101318.50;;;13.78;100.00
71966;BME280;59836;52.132;5.442;2023-08-07T03:03:36;101321.22;;;13.78;100.00
71966;BME280;59836;52.132;5.442;2023-08-07T03:06:12;101323.13;;;13.78;100.00
71966;BME280;59836;52.132;5.442;2023-08-07T03:08:45;101325.03;;;13.77;100.00
71966;BME280;59836;52.132;5.442;2023-08-07T03:11:12;101316.84;;;13.77;100.00
71966;BME280;59836;52.132;5.442;2023-08-07T03:13:43;101305.41;;;13.75;100.00
71966;BME280;59836;52.132;5.442;2023-08-07T03:16:10;101308.13;;;13.75;100.00
71966;BME280;59836;52.132;5.442;2023-08-07T03:18:50;101303.25;;;13.72;100.00
71966;BME280;59836;52.132;5.442;2023-08-07T03:21:21;101297.00;;;13.71;100.00
71966;BME280;59836;52.132;5.442;2023-08-07T03:23:54;101297.78;;;13.72;100.00
71966;BME280;59836;52.132;5.442;2023-08-07T03:26:24;101305.97;;;13.72;100.00
71966;BME280;59836;52.132;5.442;2023-08-07T03:29:02;101304.34;;;13.71;100.00
71966;BME280;59836;52.132;5.442;2023-08-07T03:31:35;101303.28;;;13.67;100.00
71966;BME280;59836;52.132;5.442;2023-08-07T03:34:03;101297.28;;;13.65;100.00
71966;BME280;59836;52.132;5.442;2023-08-07T03:36:35;101300.56;;;13.62;100.00
71966;BME280;59836;52.132;5.442;2023-08-07T03:39:04;101304.13;;;13.62;100.00
71966;BME280;59836;52.132;5.442;2023-08-07T03:41:31;101303.81;;;13.64;100.00
71966;BME280;59836;52.132;5.442;2023-08-07T03:43:57;101306.00;;;13.62;100.00
71966;BME280;59836;52.132;5.442;2023-08-07T03:46:26;101307.09;;;13.61;100.00
71966;BME280;59836;52.132;5.442;2023-08-07T03:48:52;101295.41;;;13.60;100.00
71966;BME280;59836;52.132;5.442;2023-08-07T03:51:19;101296.75;;;13.63;100.00
71966;BME280;59836;52.132;5.442;2023-08-07T03:53:45;101297.84;;;13.62;100.00
71966;BME280;59836;52.132;5.442;2023-08-07T03:56:12;101298.66;;;13.62;100.00
71966;BME280;59836;52.132;5.442;2023-08-07T03:58:39;101304.91;;;13.63;100.00
71966;BME280;59836;52.132;5.442;2023-08-07T04:01:09;101311.19;;;13.63;100.00
71966;BME280;59836;52.132;5.442;2023-08-07T04:03:36;101303.81;;;13.64;100.00
71966;BME280;59836;52.132;5.442;2023-08-07T04:06:06;101304.38;;;13.66;100.00
71966;BME280;59836;52.132;5.442;2023-08-07T04:08:46;101304.38;;;13.66;100.00
71966;BME280;59836;52.132;5.442;2023-08-07T04:11:13;101300.53;;;13.67;100.00
71966;BME280;59836;52.132;5.442;2023-08-07T04:13:39;101306.81;;;13.67;100.00
71966;BME280;59836;52.132;5.442;2023-08-07T04:16:07;101305.44;;;13.70;100.00
71966;BME280;59836;52.132;5.442;2023-08-07T04:18:34;101300.81;;;13.70;100.00
71966;BME280;59836;52.132;5.442;2023-08-07T04:21:02;101310.34;;;13.73;100.00
71966;BME280;59836;52.132;5.442;2023-08-07T04:23:32;101317.41;;;13.74;100.00
71966;BME280;59836;52.132;5.442;2023-08-07T04:29:16;101320.13;;;13.74;100.00
71966;BME280;59836;52.132;5.442;2023-08-07T04:31:45;101320.69;;;13.76;100.00
71966;BME280;59836;52.132;5.442;2023-08-07T04:34:22;101324.22;;;13.77;100.00
71966;BME280;59836;52.132;5.442;2023-08-07T04:36:51;101325.03;;;13.77;100.00
71966;BME280;59836;52.132;5.442;2023-08-07T04:39:27;101323.41;;;13.76;100.00
71966;BME280;59836;52.132;5.442;2023-08-07T04:42:14;101332.69;;;13.75;100.00
71966;BME280;59836;52.132;5.442;2023-08-07T04:44:41;101332.69;;;13.75;100.00
71966;BME280;59836;52.132;5.442;2023-08-07T04:47:12;101344.13;;;13.77;100.00
71966;BME280;59836;52.132;5.442;2023-08-07T04:49:39;101338.97;;;13.76;100.00
71966;BME280;59836;52.132;5.442;2023-08-07T04:52:37;101344.66;;;13.74;100.00
71966;BME280;59836;52.132;5.442;2023-08-07T04:55:04;101346.31;;;13.75;100.00
71966;BME280;59836;52.132;5.442;2023-08-07T04:58:00;101349.88;;;13.76;100.00
71966;BME280;59836;52.132;5.442;2023-08-07T05:00:28;101351.19;;;13.78;100.00
71966;BME280;59836;52.132;5.442;2023-08-07T05:03:00;101344.13;;;13.77;100.00
71966;BME280;59836;52.132;5.442;2023-08-07T05:05:30;101352.28;;;13.77;100.00
71966;BME280;59836;52.132;5.442;2023-08-07T05:07:58;101360.47;;;13.77;100.00
71966;BME280;59836;52.132;5.442;2023-08-07T05:10:25;101363.75;;;13.79;100.00
71966;BME280;59836;52.132;5.442;2023-08-07T05:12:57;101377.06;;;13.81;100.00
71966;BME280;59836;52.132;5.442;2023-08-07T05:15:25;101377.38;;;13.79;100.00
71966;BME280;59836;52.132;5.442;2023-08-07T05:18:09;101385.53;;;13.79;100.00
71966;BME280;59836;52.132;5.442;2023-08-07T05:20:38;101386.34;;;13.80;100.00
71966;BME280;59836;52.132;5.442;2023-08-07T05:23:05;101387.19;;;13.80;100.00
71966;BME280;59836;52.132;5.442;2023-08-07T05:25:39;101395.63;;;13.79;100.00
71966;BME280;59836;52.132;5.442;2023-08-07T05:28:05;101404.91;;;13.78;100.00
71966;BME280;59836;52.132;5.442;2023-08-07T05:30:32;101382.56;;;13.76;100.00
71966;BME280;59836;52.132;5.442;2023-08-07T05:32:59;101386.94;;;13.77;100.00
71966;BME280;59836;52.132;5.442;2023-08-07T05:35:25;101388.81;;;13.76;100.00
71966;BME280;59836;52.132;5.442;2023-08-07T05:37:52;101393.19;;;13.77;100.00
71966;BME280;59836;52.132;5.442;2023-08-07T05:40:20;101394.28;;;13.76;100.00
71966;BME280;59836;52.132;5.442;2023-08-07T05:43:16;101401.06;;;13.79;100.00
71966;BME280;59836;52.132;5.442;2023-08-07T05:45:45;101403.53;;;13.80;100.00
71966;BME280;59836;52.132;5.442;2023-08-07T05:48:34;101407.91;;;13.81;100.00
71966;BME280;59836;52.132;5.442;2023-08-07T05:51:02;101413.06;;;13.83;100.00
71966;BME280;59836;52.132;5.442;2023-08-07T05:53:29;101404.06;;;13.82;100.00
71966;BME280;59836;52.132;5.442;2023-08-07T05:55:55;101404.34;;;13.81;100.00
71966;BME280;59836;52.132;5.442;2023-08-07T05:58:30;101410.63;;;13.81;100.00
71966;BME280;59836;52.132;5.442;2023-08-07T06:00:57;101412.78;;;13.84;100.00
71966;BME280;59836;52.132;5.442;2023-08-07T06:03:23;101411.69;;;13.85;100.00
71966;BME280;59836;52.132;5.442;2023-08-07T06:05:51;101414.97;;;13.87;100.00
71966;BME280;59836;52.132;5.442;2023-08-07T06:08:17;101417.69;;;13.87;100.00
71966;BME280;59836;52.132;5.442;2023-08-07T06:10:44;101413.34;;;13.86;100.00
71966;BME280;59836;52.132;5.442;2023-08-07T06:13:11;101414.97;;;13.87;100.00
71966;BME280;59836;52.132;5.442;2023-08-07T06:16:11;101416.59;;;13.88;100.00
71966;BME280;59836;52.132;5.442;2023-08-07T06:18:38;101418.22;;;13.90;100.00
71966;BME280;59836;52.132;5.442;2023-08-07T06:21:11;101430.78;;;13.91;100.00
71966;BME280;59836;52.132;5.442;2023-08-07T06:23:37;101432.94;;;13.94;100.00
71966;BME280;59836;52.132;5.442;2023-08-07T06:26:05;101433.19;;;13.97;100.00
71966;BME280;59836;52.132;5.442;2023-08-07T06:28:34;101431.28;;;13.98;100.00
71966;BME280;59836;52.132;5.442;2023-08-07T06:31:10;101423.66;;;14.00;100.00
71966;BME280;59836;52.132;5.442;2023-08-07T06:33:38;101428.56;;;14.03;100.00
71966;BME280;59836;52.132;5.442;2023-08-07T06:36:06;101435.09;;;14.07;100.00
71966;BME280;59836;52.132;5.442;2023-08-07T06:38:49;101430.97;;;14.10;100.00
71966;BME280;59836;52.132;5.442;2023-08-07T06:41:17;101437.78;;;14.12;100.00
71966;BME280;59836;52.132;5.442;2023-08-07T06:44:10;101443.50;;;14.16;100.00
71966;BME280;59836;52.132;5.442;2023-08-07T06:46:37;101443.22;;;14.17;100.00
71966;BME280;59836;52.132;5.442;2023-08-07T06:49:04;101448.66;;;14.23;100.00
71966;BME280;59836;52.132;5.442;2023-08-07T06:51:33;101459.28;;;14.24;100.00
71966;BME280;59836;52.132;5.442;2023-08-07T06:53:59;101453.56;;;14.26;100.00
71966;BME280;59836;52.132;5.442;2023-08-07T06:56:26;101456.00;;;14.27;100.00
71966;BME280;59836;52.132;5.442;2023-08-07T06:58:52;101451.38;;;14.28;100.00
71966;BME280;59836;52.132;5.442;2023-08-07T07:01:19;101463.91;;;14.29;100.00
71966;BME280;59836;52.132;5.442;2023-08-07T07:03:46;101457.88;;;14.32;100.00
71966;BME280;59836;52.132;5.442;2023-08-07T07:06:13;101457.31;;;14.35;100.00
71966;BME280;59836;52.132;5.442;2023-08-07T07:08:47;101469.84;;;14.41;100.00
71966;BME280;59836;52.132;5.442;2023-08-07T07:11:13;101470.38;;;14.43;100.00
71966;BME280;59836;52.132;5.442;2023-08-07T07:13:41;101474.47;;;14.46;100.00
71966;BME280;59836;52.132;5.442;2023-08-07T07:16:09;101479.63;;;14.47;100.00
71966;BME280;59836;52.132;5.442;2023-08-07T07:18:39;101482.13;;;14.44;100.00
71966;BME280;59836;52.132;5.442;2023-08-07T07:21:06;101490.56;;;14.42;100.00
71966;BME280;59836;52.132;5.442;2023-08-07T07:23:33;101503.16;;;14.38;100.00
71966;BME280;59836;52.132;5.442;2023-08-07T07:26:00;101503.44;;;14.37;100.00
71966;BME280;59836;52.132;5.442;2023-08-07T07:28:27;101502.63;;;14.31;100.00
71966;BME280;59836;52.132;5.442;2023-08-07T07:30:58;101514.66;;;14.30;100.00
71966;BME280;59836;52.132;5.442;2023-08-07T07:33:53;101506.19;;;14.31;100.00
71966;BME280;59836;52.132;5.442;2023-08-07T07:36:39;101512.44;;;14.32;100.00
71966;BME280;59836;52.132;5.442;2023-08-07T07:39:08;101512.97;;;14.34;100.00
71966;BME280;59836;52.132;5.442;2023-08-07T07:41:38;101516.00;;;14.38;100.00
71966;BME280;59836;52.132;5.442;2023-08-07T07:44:05;101518.16;;;14.41;100.00
71966;BME280;59836;52.132;5.442;2023-08-07T07:46:31;101518.94;;;14.46;100.00
71966;BME280;59836;52.132;5.442;2023-08-07T07:48:58;101527.66;;;14.54;100.00
71966;BME280;59836;52.132;5.442;2023-08-07T07:51:25;101528.47;;;14.59;100.00
71966;BME280;59836;52.132;5.442;2023-08-07T07:53:52;101521.03;;;14.65;100.00
71966;BME280;59836;52.132;5.442;2023-08-07T07:56:39;101521.06;;;14.70;100.00
71966;BME280;59836;52.132;5.442;2023-08-07T07:59:06;101533.59;;;14.76;100.00
71966;BME280;59836;52.132;5.442;2023-08-07T08:01:34;101539.03;;;14.76;100.00
71966;BME280;59836;52.132;5.442;2023-08-07T08:04:02;101533.59;;;14.76;100.00
71966;BME280;59836;52.132;5.442;2023-08-07T08:06:28;101534.16;;;14.73;100.00
71966;BME280;59836;52.132;5.442;2023-08-07T08:08:57;101541.81;;;14.71;100.00
71966;BME280;59836;52.132;5.442;2023-08-07T08:11:23;101545.06;;;14.68;100.00
71966;BME280;59836;52.132;5.442;2023-08-07T08:13:50;101555.44;;;14.66;100.00
71966;BME280;59836;52.132;5.442;2023-08-07T08:16:17;101559.00;;;14.67;100.00
71966;BME280;59836;52.132;5.442;2023-08-07T08:18:59;101559.81;;;14.62;100.00
71966;BME280;59836;52.132;5.442;2023-08-07T08:21:26;101561.47;;;14.58;100.00
71966;BME280;59836;52.132;5.442;2023-08-07T08:23:52;101561.78;;;14.56;100.00
71966;BME280;59836;52.132;5.442;2023-08-07T08:26:19;101558.50;;;14.54;100.00
71966;BME280;59836;52.132;5.442;2023-08-07T08:28:45;101567.22;;;14.56;100.00
71966;BME280;59836;52.132;5.442;2023-08-07T08:31:11;101569.66;;;14.58;100.00
71966;BME280;59836;52.132;5.442;2023-08-07T08:33:38;101563.09;;;14.64;100.00
71966;BME280;59836;52.132;5.442;2023-08-07T08:36:06;101572.94;;;14.70;100.00
71966;BME280;59836;52.132;5.442;2023-08-07T08:38:33;101571.81;;;14.76;100.00
71966;BME280;59836;52.132;5.442;2023-08-07T08:41:02;101566.06;;;14.83;100.00
71966;BME280;59836;52.132;5.442;2023-08-07T08:43:34;101574.19;;;14.88;100.00
71966;BME280;59836;52.132;5.442;2023-08-07T08:46:01;101563.53;;;14.92;100.00
71966;BME280;59836;52.132;5.442;2023-08-07T08:48:29;101566.25;;;14.97;100.00
71966;BME280;59836;52.132;5.442;2023-08-07T08:50:58;101571.69;;;15.02;100.00
71966;BME280;59836;52.132;5.442;2023-08-07T08:53:25;101576.28;;;15.07;100.00
71966;BME280;59836;52.132;5.442;2023-08-07T08:55:51;101573.84;;;15.05;100.00
71966;BME280;59836;52.132;5.442;2023-08-07T08:58:19;101588.06;;;15.02;100.00
71966;BME280;59836;52.132;5.442;2023-08-07T09:00:47;101597.09;;;14.98;100.00
71966;BME280;59836;52.132;5.442;2023-08-07T09:03:14;101594.13;;;14.94;100.00
71966;BME280;59836;52.132;5.442;2023-08-07T09:05:41;101605.34;;;14.87;100.00
71966;BME280;59836;52.132;5.442;2023-08-07T09:08:09;101602.38;;;14.84;100.00
71966;BME280;59836;52.132;5.442;2023-08-07T09:10:37;101585.44;;;14.82;100.00
71966;BME280;59836;52.132;5.442;2023-08-07T09:13:08;101599.09;;;14.82;100.00
71966;BME280;59836;52.132;5.442;2023-08-07T09:15:37;101599.09;;;14.82;100.00
71966;BME280;59836;52.132;5.442;2023-08-07T09:18:06;101602.91;;;14.86;100.00
71966;BME280;59836;52.132;5.442;2023-08-07T09:20:38;101603.97;;;14.90;100.00
71966;BME280;59836;52.132;5.442;2023-08-07T09:23:07;101612.97;;;14.90;100.00
71966;BME280;59836;52.132;5.442;2023-08-07T09:25:46;101608.31;;;14.96;100.00
71966;BME280;59836;52.132;5.442;2023-08-07T09:28:13;101611.03;;;15.01;100.00
71966;BME280;59836;52.132;5.442;2023-08-07T09:30:44;101612.91;;;15.06;100.00
71966;BME280;59836;52.132;5.442;2023-08-07T09:33:28;101615.34;;;15.13;100.00
71966;BME280;59836;52.132;5.442;2023-08-07T09:35:59;101617.75;;;15.19;100.00
71966;BME280;59836;52.132;5.442;2023-08-07T09:38:31;101614.19;;;15.24;98.83
71966;BME280;59836;52.132;5.442;2023-08-07T09:41:01;101604.91;;;15.25;99.09
71966;BME280;59836;52.132;5.442;2023-08-07T09:43:34;101607.63;;;15.25;100.00
71966;BME280;59836;52.132;5.442;2023-08-07T09:46:05;101615.25;;;15.28;99.94
71966;BME280;59836;52.132;5.442;2023-08-07T09:48:42;101615.25;;;15.28;99.94
71966;BME280;59836;52.132;5.442;2023-08-07T09:51:31;101619.09;;;15.27;99.88
71966;BME280;59836;52.132;5.442;2023-08-07T09:54:07;101638.50;;;15.26;99.62
71966;BME280;59836;52.132;5.442;2023-08-07T09:56:35;101628.97;;;15.23;98.52
71966;BME280;59836;52.132;5.442;2023-08-07T09:59:01;101632.78;;;15.22;97.92
71966;BME280;59836;52.132;5.442;2023-08-07T10:01:28;101642.09;;;15.21;97.70
71966;BME280;59836;52.132;5.442;2023-08-07T10:04:10;101644.53;;;15.23;98.27
71966;BME280;59836;52.132;5.442;2023-08-07T10:06:48;101657.91;;;15.24;96.75
71966;BME280;59836;52.132;5.442;2023-08-07T10:09:14;101654.09;;;15.25;96.24
71966;BME280;59836;52.132;5.442;2023-08-07T10:11:41;101659.56;;;15.25;96.72
71966;BME280;59836;52.132;5.442;2023-08-07T10:14:08;101651.34;;;15.25;96.70
71966;BME280;59836;52.132;5.442;2023-08-07T10:16:35;101654.88;;;15.26;97.10
71966;BME280;59836;52.132;5.442;2023-08-07T10:19:21;101659.56;;;15.25;97.08
71966;BME280;59836;52.132;5.442;2023-08-07T10:22:02;101654.63;;;15.27;97.04
71966;BME280;59836;52.132;5.442;2023-08-07T10:24:29;101659.22;;;15.32;97.37
71966;BME280;59836;52.132;5.442;2023-08-07T10:26:57;101650.19;;;15.37;97.14
71966;BME280;59836;52.132;5.442;2023-08-07T10:29:25;101661.59;;;15.44;97.15
71966;BME280;59836;52.132;5.442;2023-08-07T10:31:55;101656.94;;;15.49;97.22
71966;BME280;59836;52.132;5.442;2023-08-07T10:34:22;101653.66;;;15.53;97.26
71966;BME280;59836;52.132;5.442;2023-08-07T10:36:49;101663.19;;;15.55;96.81
71966;BME280;59836;52.132;5.442;2023-08-07T10:39:15;101653.88;;;15.56;97.06
71966;BME280;59836;52.132;5.442;2023-08-07T10:41:46;101657.13;;;15.63;96.68
71966;BME280;59836;52.132;5.442;2023-08-07T10:46:47;101660.34;;;15.71;94.45
71966;BME280;59836;52.132;5.442;2023-08-07T10:49:38;101658.72;;;15.70;94.92
71966;BME280;59836;52.132;5.442;2023-08-07T10:52:13;101662.28;;;15.70;93.16
71966;BME280;59836;52.132;5.442;2023-08-07T10:54:48;101663.66;;;15.68;94.61
71966;BME280;59836;52.132;5.442;2023-08-07T10:57:18;101661.44;;;15.70;94.01
71966;BME280;59836;52.132;5.442;2023-08-07T11:02:28;101663.53;;;15.83;93.30
71966;BME280;59836;52.132;5.442;2023-08-07T11:04:56;101659.44;;;15.86;92.31
71966;BME280;59836;52.132;5.442;2023-08-07T11:07:26;101665.47;;;15.88;92.19
71966;BME280;59836;52.132;5.442;2023-08-07T11:09:53;101668.22;;;15.88;91.86
71966;BME280;59836;52.132;5.442;2023-08-07T11:12:20;101670.66;;;15.84;91.74
71966;BME280;59836;52.132;5.442;2023-08-07T11:14:47;101680.53;;;15.80;91.83
71966;BME280;59836;52.132;5.442;2023-08-07T11:17:14;101682.19;;;15.76;90.64
71966;BME280;59836;52.132;5.442;2023-08-07T11:19:43;101686.28;;;15.78;92.08
71966;BME280;59836;52.132;5.442;2023-08-07T11:22:09;101674.78;;;15.82;91.73
71966;BME280;59836;52.132;5.442;2023-08-07T11:24:37;101685.44;;;15.83;92.39
71966;BME280;59836;52.132;5.442;2023-08-07T11:27:07;101689.25;;;15.82;92.52
71966;BME280;59836;52.132;5.442;2023-08-07T11:29:47;101704.56;;;15.83;91.43
71966;BME280;59836;52.132;5.442;2023-08-07T11:32:14;101687.06;;;15.84;91.62
71966;BME280;59836;52.132;5.442;2023-08-07T11:34:48;101684.31;;;15.89;91.59
71966;BME280;59836;52.132;5.442;2023-08-07T11:37:27;101685.91;;;15.96;91.81
71966;BME280;59836;52.132;5.442;2023-08-07T11:40:00;101687.50;;;16.02;91.67
71966;BME280;59836;52.132;5.442;2023-08-07T11:42:28;101689.09;;;16.08;91.20
71966;BME280;59836;52.132;5.442;2023-08-07T11:44:55;101685.22;;;16.14;91.49
71966;BME280;59836;52.132;5.442;2023-08-07T11:47:39;101688.97;;;16.23;90.86
71966;BME280;59836;52.132;5.442;2023-08-07T11:50:30;101688.94;;;16.29;90.46
71966;BME280;59836;52.132;5.442;2023-08-07T11:52:58;101683.41;;;16.34;89.61
71966;BME280;59836;52.132;5.442;2023-08-07T11:55:28;101684.47;;;16.38;88.23
71966;BME280;59836;52.132;5.442;2023-08-07T12:01:48;101672.00;;;16.51;89.90
71966;BME280;59836;52.132;5.442;2023-08-07T12:04:30;101672.50;;;16.58;89.24
71966;BME280;59836;52.132;5.442;2023-08-07T12:06:57;101669.69;;;16.63;87.84
71966;BME280;59836;52.132;5.442;2023-08-07T12:09:25;101671.56;;;16.68;88.25
71966;BME280;59836;52.132;5.442;2023-08-07T12:11:57;101670.97;;;16.71;88.96
71966;BME280;59836;52.132;5.442;2023-08-07T12:14:30;101673.13;;;16.74;88.12
71966;BME280;59836;52.132;5.442;2023-08-07T12:16:57;101673.13;;;16.74;88.21
71966;BME280;59836;52.132;5.442;2023-08-07T12:19:24;101670.38;;;16.74;87.39
71966;BME280;59836;52.132;5.442;2023-08-07T12:21:50;101669.28;;;16.75;86.06
71966;BME280;59836;52.132;5.442;2023-08-07T12:24:17;101668.16;;;16.76;86.61
71966;BME280;59836;52.132;5.442;2023-08-07T12:26:43;101678.56;;;16.79;84.26
71966;BME280;59836;52.132;5.442;2023-08-07T12:29:11;101680.72;;;16.82;85.41
71966;BME280;59836;52.132;5.442;2023-08-07T12:31:37;101695.44;;;16.87;87.28
71966;BME280;59836;52.132;5.442;2023-08-07T12:34:05;101685.53;;;16.91;82.90
71966;BME280;59836;52.132;5.442;2023-08-07T12:36:37;101687.19;;;16.92;84.55
71966;BME280;59836;52.132;5.442;2023-08-07T12:39:03;101684.22;;;16.88;79.56
71966;BME280;59836;52.132;5.442;2023-08-07T12:41:30;101681.22;;;16.85;80.63
71966;BME280;59836;52.132;5.442;2023-08-07T12:43:59;101686.72;;;16.85;81.13
71966;BME280;59836;52.132;5.442;2023-08-07T12:46:27;101679.00;;;16.87;81.49
71966;BME280;59836;52.132;5.442;2023-08-07T12:49:31;101681.19;;;16.90;80.24
71966;BME280;59836;52.132;5.442;2023-08-07T12:51:59;101681.41;;;16.93;81.58
71966;BME280;59836;52.132;5.442;2023-08-07T12:54:32;101684.94;;;16.99;77.89
71966;BME280;59836;52.132;5.442;2023-08-07T12:56:58;101675.88;;;16.99;77.28
71966;BME280;59836;52.132;5.442;2023-08-07T12:59:25;101681.34;;;16.99;76.80
71966;BME280;59836;52.132;5.442;2023-08-07T13:01:51;101675.06;;;16.98;76.19
71966;BME280;59836;52.132;5.442;2023-08-07T13:04:19;101681.59;;;17.02;76.38
71966;BME280;59836;52.132;5.442;2023-08-07T13:06:46;101683.75;;;17.05;74.20
71966;BME280;59836;52.132;5.442;2023-08-07T13:09:13;101682.66;;;17.06;73.97
71966;BME280;59836;52.132;5.442;2023-08-07T13:11:40;101690.63;;;17.03;77.55
71966;BME280;59836;52.132;5.442;2023-08-07T13:14:06;101689.31;;;17.00;76.17
71966;BME280;59836;52.132;5.442;2023-08-07T13:16:33;101684.34;;;17.02;75.65
71966;BME280;59836;52.132;5.442;2023-08-07T13:18:59;101692.44;;;17.13;76.94
71966;BME280;59836;52.132;5.442;2023-08-07T13:21:29;101682.75;;;17.20;77.57
71966;BME280;59836;52.132;5.442;2023-08-07T13:23:59;101689.28;;;17.24;76.99
71966;BME280;59836;52.132;5.442;2023-08-07T13:26:35;101706.47;;;17.30;75.11
71966;BME280;59836;52.132;5.442;2023-08-07T13:29:03;101697.22;;;17.26;73.60
71966;BME280;59836;52.132;5.442;2023-08-07T13:31:40;101697.81;;;17.23;74.43
71966;BME280;59836;52.132;5.442;2023-08-07T13:34:12;101697.81;;;17.23;72.82
71966;BME280;59836;52.132;5.442;2023-08-07T13:36:47;101702.69;;;17.26;74.28
71966;BME280;59836;52.132;5.442;2023-08-07T13:39:15;101690.31;;;17.29;75.95
71966;BME280;59836;52.132;5.442;2023-08-07T13:41:49;101691.00;;;17.39;76.10
71966;BME280;59836;52.132;5.442;2023-08-07T13:44:15;101699.97;;;17.45;76.53
71966;BME280;59836;52.132;5.442;2023-08-07T13:46:55;101705.69;;;17.49;76.47